sensor_id;sensor_type;location;lat;lon;timestamp;pressure;altitude;pressure_sealevel;temperature;humidity
31483;BME280;18103;52.246;8.052;2023-07-09T00:02:16;100602.25;;;23.67;55.79
31483;BME280;18103;52.246;8.052;2023-07-09T00:04:45;100604.75;;;23.69;55.83
31483;BME280;18103;52.246;8.052;2023-07-09T00:07:27;100614.59;;;23.48;56.66
31483;BME280;18103;52.246;8.052;2023-07-09T00:09:53;100620.41;;;23.52;56.83
31483;BME280;18103;52.246;8.052;2023-07-09T00:12:22;100611.06;;;23.48;56.92
31483;BME280;18103;52.246;8.052;2023-07-09T00:14:47;100624.28;;;23.43;57.50
31483;BME280;18103;52.246;8.052;2023-07-09T00:17:28;100613.22;;;23.31;57.77
31483;BME280;18103;52.246;8.052;2023-07-09T00:19:54;100613.41;;;23.22;57.66
31483;BME280;18103;52.246;8.052;2023-07-09T00:22:21;100618.09;;;23.14;58.55
31483;BME280;18103;52.246;8.052;2023-07-09T00:24:49;100630.66;;;23.06;58.51
31483;BME280;18103;52.246;8.052;2023-07-09T00:27:18;100631.50;;;23.07;57.75
31483;BME280;18103;52.246;8.052;2023-07-09T00:29:43;100620.47;;;23.02;58.47
31483;BME280;18103;52.246;8.052;2023-07-09T00:32:13;100621.03;;;22.90;59.16
31483;BME280;18103;52.246;8.052;2023-07-09T00:34:44;100628.34;;;23.03;58.67
31483;BME280;18103;52.246;8.052;2023-07-09T00:37:24;100623.78;;;23.04;58.07
31483;BME280;18103;52.246;8.052;2023-07-09T00:39:53;100622.97;;;23.03;57.71
31483;BME280;18103;52.246;8.052;2023-07-09T00:42:22;100609.50;;;23.03;58.00
31483;BME280;18103;52.246;8.052;2023-07-09T00:44:54;100614.59;;;23.13;56.82
31483;BME280;18103;52.246;8.052;2023-07-09T00:47:26;100608.41;;;23.19;56.46
31483;BME280;18103;52.246;8.052;2023-07-09T00:52:56;100607.56;;;23.19;54.94
31483;BME280;18103;52.246;8.052;2023-07-09T00:55:33;100601.59;;;23.23;54.14
31483;BME280;18103;52.246;8.052;2023-07-09T00:58:05;100595.19;;;23.24;53.88
31483;BME280;18103;52.246;8.052;2023-07-09T01:00:35;100595.84;;;23.33;53.21
31483;BME280;18103;52.246;8.052;2023-07-09T01:03:09;100593.94;;;23.27;52.73
31483;BME280;18103;52.246;8.052;2023-07-09T01:05:41;100594.56;;;23.29;53.23
31483;BME280;18103;52.246;8.052;2023-07-09T01:08:07;100597.91;;;23.31;53.23
31483;BME280;18103;52.246;8.052;2023-07-09T01:10:37;100592.94;;;23.35;53.20
31483;BME280;18103;52.246;8.052;2023-07-09T01:13:08;100600.81;;;23.36;53.13
31483;BME280;18103;52.246;8.052;2023-07-09T01:15:34;100597.13;;;23.37;53.32
31483;BME280;18103;52.246;8.052;2023-07-09T01:18:03;100601.88;;;23.35;53.71
31483;BME280;18103;52.246;8.052;2023-07-09T01:20:28;100600.22;;;23.34;53.06
31483;BME280;18103;52.246;8.052;2023-07-09T01:22:54;100601.22;;;23.33;52.62
31483;BME280;18103;52.246;8.052;2023-07-09T01:25:28;100599.38;;;23.34;52.46
31483;BME280;18103;52.246;8.052;2023-07-09T01:27:54;100601.88;;;23.35;52.09
31483;BME280;18103;52.246;8.052;2023-07-09T01:30:25;100603.50;;;23.30;52.76
31483;BME280;18103;52.246;8.052;2023-07-09T01:32:56;100606.75;;;23.18;53.83
31483;BME280;18103;52.246;8.052;2023-07-09T01:35:22;100605.69;;;23.13;54.85
31483;BME280;18103;52.246;8.052;2023-07-09T01:37:53;100604.31;;;23.02;54.86
31483;BME280;18103;52.246;8.052;2023-07-09T01:40:23;100597.72;;;23.04;54.83
31483;BME280;18103;52.246;8.052;2023-07-09T01:42:49;100591.38;;;23.12;54.30
31483;BME280;18103;52.246;8.052;2023-07-09T01:45:15;100593.88;;;23.14;52.80
31483;BME280;18103;52.246;8.052;2023-07-09T01:47:40;100591.88;;;23.22;52.58
31483;BME280;18103;52.246;8.052;2023-07-09T01:50:06;100597.06;;;23.31;52.30
31483;BME280;18103;52.246;8.052;2023-07-09T01:52:33;100591.88;;;23.22;52.90
31483;BME280;18103;52.246;8.052;2023-07-09T01:54:59;100594.94;;;23.19;52.77
31483;BME280;18103;52.246;8.052;2023-07-09T01:57:29;100594.22;;;23.11;53.94
31483;BME280;18103;52.246;8.052;2023-07-09T02:00:14;100596.88;;;23.04;54.51
31483;BME280;18103;52.246;8.052;2023-07-09T02:02:44;100594.16;;;22.97;54.51
31483;BME280;18103;52.246;8.052;2023-07-09T02:05:16;100594.19;;;23.04;54.21
31483;BME280;18103;52.246;8.052;2023-07-09T02:07:44;100590.72;;;23.10;53.92
31483;BME280;18103;52.246;8.052;2023-07-09T02:10:11;100595.66;;;23.06;53.60
31483;BME280;18103;52.246;8.052;2023-07-09T02:12:36;100604.13;;;23.03;54.45
31483;BME280;18103;52.246;8.052;2023-07-09T02:15:02;100596.41;;;22.94;54.96
31483;BME280;18103;52.246;8.052;2023-07-09T02:17:28;100595.53;;;22.86;55.39
31483;BME280;18103;52.246;8.052;2023-07-09T02:19:53;100592.56;;;22.81;55.92
31483;BME280;18103;52.246;8.052;2023-07-09T02:22:18;100593.84;;;22.85;56.00
31483;BME280;18103;52.246;8.052;2023-07-09T02:24:44;100598.22;;;22.86;55.54
31483;BME280;18103;52.246;8.052;2023-07-09T02:27:17;100591.09;;;22.79;55.67
31483;BME280;18103;52.246;8.052;2023-07-09T02:29:43;100591.41;;;22.90;55.25
31483;BME280;18103;52.246;8.052;2023-07-09T02:32:09;100590.13;;;22.86;53.04
31483;BME280;18103;52.246;8.052;2023-07-09T02:34:34;100592.69;;;23.01;53.01
31483;BME280;18103;52.246;8.052;2023-07-09T02:37:00;100592.22;;;22.91;52.78
31483;BME280;18103;52.246;8.052;2023-07-09T02:39:28;100593.09;;;22.98;52.17
31483;BME280;18103;52.246;8.052;2023-07-09T02:41:54;100594.97;;;22.98;51.96
31483;BME280;18103;52.246;8.052;2023-07-09T02:44:19;100599.91;;;22.94;52.11
31483;BME280;18103;52.246;8.052;2023-07-09T02:46:45;100599.53;;;22.97;52.36
31483;BME280;18103;52.246;8.052;2023-07-09T02:49:13;100602.22;;;22.97;53.29
31483;BME280;18103;52.246;8.052;2023-07-09T02:51:41;100604.22;;;22.88;54.31
31483;BME280;18103;52.246;8.052;2023-07-09T02:54:11;100607.91;;;22.81;55.34
31483;BME280;18103;52.246;8.052;2023-07-09T02:56:36;100610.78;;;22.79;55.14
31483;BME280;18103;52.246;8.052;2023-07-09T02:59:02;100612.19;;;22.75;55.77
31483;BME280;18103;52.246;8.052;2023-07-09T03:01:27;100613.81;;;22.69;56.17
31483;BME280;18103;52.246;8.052;2023-07-09T03:03:57;100608.97;;;22.58;56.27
31483;BME280;18103;52.246;8.052;2023-07-09T03:06:25;100608.75;;;22.60;56.35
31483;BME280;18103;52.246;8.052;2023-07-09T03:08:54;100610.59;;;22.59;56.71
31483;BME280;18103;52.246;8.052;2023-07-09T03:11:22;100615.78;;;22.61;56.22
31483;BME280;18103;52.246;8.052;2023-07-09T03:13:49;100606.59;;;22.48;56.59
31483;BME280;18103;52.246;8.052;2023-07-09T03:16:18;100607.81;;;22.46;56.77
31483;BME280;18103;52.246;8.052;2023-07-09T03:18:45;100611.78;;;22.50;55.96
31483;BME280;18103;52.246;8.052;2023-07-09T03:21:10;100612.72;;;22.42;56.58
31483;BME280;18103;52.246;8.052;2023-07-09T03:23:36;100611.91;;;22.42;56.26
31483;BME280;18103;52.246;8.052;2023-07-09T03:26:01;100611.63;;;22.36;55.92
31483;BME280;18103;52.246;8.052;2023-07-09T03:28:27;100609.41;;;22.25;56.92
31483;BME280;18103;52.246;8.052;2023-07-09T03:30:54;100619.06;;;22.34;56.81
31483;BME280;18103;52.246;8.052;2023-07-09T03:33:20;100610.03;;;22.27;57.29
31483;BME280;18103;52.246;8.052;2023-07-09T03:35:45;100611.09;;;22.26;57.03
31483;BME280;18103;52.246;8.052;2023-07-09T03:38:11;100602.75;;;22.21;56.91
31483;BME280;18103;52.246;8.052;2023-07-09T03:40:37;100604.81;;;22.19;57.22
31483;BME280;18103;52.246;8.052;2023-07-09T03:43:05;100606.84;;;22.17;58.05
31483;BME280;18103;52.246;8.052;2023-07-09T03:45:32;100606.47;;;22.20;57.29
31483;BME280;18103;52.246;8.052;2023-07-09T03:47:58;100598.47;;;22.27;57.25
31483;BME280;18103;52.246;8.052;2023-07-09T03:50:23;100607.50;;;22.19;57.09
31483;BME280;18103;52.246;8.052;2023-07-09T03:52:48;100614.13;;;22.23;56.85
31483;BME280;18103;52.246;8.052;2023-07-09T03:55:16;100611.78;;;22.13;57.61
31483;BME280;18103;52.246;8.052;2023-07-09T03:57:42;100612.63;;;22.14;57.50
31483;BME280;18103;52.246;8.052;2023-07-09T04:00:12;100617.16;;;22.13;57.41
31483;BME280;18103;52.246;8.052;2023-07-09T04:02:39;100613.03;;;22.17;57.63
31483;BME280;18103;52.246;8.052;2023-07-09T04:05:06;100608.63;;;22.10;58.06
31483;BME280;18103;52.246;8.052;2023-07-09T04:07:32;100606.56;;;22.12;57.56
31483;BME280;18103;52.246;8.052;2023-07-09T04:09:57;100609.34;;;22.18;57.73
31483;BME280;18103;52.246;8.052;2023-07-09T04:12:22;100602.59;;;22.08;58.35
31483;BME280;18103;52.246;8.052;2023-07-09T04:14:48;100595.38;;;22.08;58.35
31483;BME280;18103;52.246;8.052;2023-07-09T04:17:15;100596.97;;;22.02;58.52
31483;BME280;18103;52.246;8.052;2023-07-09T04:19:41;100593.72;;;22.07;58.59
31483;BME280;18103;52.246;8.052;2023-07-09T04:22:06;100598.50;;;22.12;58.10
31483;BME280;18103;52.246;8.052;2023-07-09T04:24:32;100600.00;;;22.14;58.10
31483;BME280;18103;52.246;8.052;2023-07-09T04:27:00;100599.75;;;22.09;58.68
31483;BME280;18103;52.246;8.052;2023-07-09T04:29:30;100600.31;;;22.04;58.95
31483;BME280;18103;52.246;8.052;2023-07-09T04:32:01;100605.13;;;22.09;58.91
31483;BME280;18103;52.246;8.052;2023-07-09T04:34:26;100605.38;;;22.14;58.77
31483;BME280;18103;52.246;8.052;2023-07-09T04:36:52;100609.34;;;22.18;58.58
31483;BME280;18103;52.246;8.052;2023-07-09T04:39:21;100602.75;;;22.21;59.00
31483;BME280;18103;52.246;8.052;2023-07-09T04:41:47;100609.72;;;22.15;58.70
31483;BME280;18103;52.246;8.052;2023-07-09T04:44:13;100612.41;;;22.15;59.29
31483;BME280;18103;52.246;8.052;2023-07-09T04:46:39;100606.84;;;22.17;59.25
31483;BME280;18103;52.246;8.052;2023-07-09T04:49:08;100608.13;;;22.21;59.02
31483;BME280;18103;52.246;8.052;2023-07-09T04:51:37;100612.69;;;22.20;60.16
31483;BME280;18103;52.246;8.052;2023-07-09T04:54:05;100618.50;;;22.24;59.45
31483;BME280;18103;52.246;8.052;2023-07-09T04:56:30;100608.13;;;22.21;60.30
31483;BME280;18103;52.246;8.052;2023-07-09T04:58:56;100617.75;;;22.30;60.40
31483;BME280;18103;52.246;8.052;2023-07-09T05:01:22;100612.03;;;22.33;59.57
31483;BME280;18103;52.246;8.052;2023-07-09T05:03:48;100613.53;;;22.43;60.10
31483;BME280;18103;52.246;8.052;2023-07-09T05:06:13;100604.25;;;22.45;60.82
31483;BME280;18103;52.246;8.052;2023-07-09T05:08:39;100611.13;;;22.48;60.59
31483;BME280;18103;52.246;8.052;2023-07-09T05:11:08;100611.59;;;22.51;60.32
31483;BME280;18103;52.246;8.052;2023-07-09T05:13:33;100611.44;;;22.60;60.14
31483;BME280;18103;52.246;8.052;2023-07-09T05:16:01;100613.16;;;22.67;59.74
31483;BME280;18103;52.246;8.052;2023-07-09T05:18:26;100616.94;;;22.73;59.30
31483;BME280;18103;52.246;8.052;2023-07-09T05:20:52;100611.59;;;22.80;59.69
31483;BME280;18103;52.246;8.052;2023-07-09T05:23:21;100612.22;;;22.82;59.31
31483;BME280;18103;52.246;8.052;2023-07-09T05:25:46;100612.88;;;22.84;59.46
31483;BME280;18103;52.246;8.052;2023-07-09T05:28:12;100616.66;;;22.89;59.78
31483;BME280;18103;52.246;8.052;2023-07-09T05:30:43;100614.03;;;22.96;59.38
31483;BME280;18103;52.246;8.052;2023-07-09T05:33:08;100615.50;;;22.99;59.27
31483;BME280;18103;52.246;8.052;2023-07-09T05:35:36;100620.47;;;23.02;58.73
31483;BME280;18103;52.246;8.052;2023-07-09T05:38:02;100608.50;;;23.04;58.92
31483;BME280;18103;52.246;8.052;2023-07-09T05:40:27;100618.41;;;23.04;59.51
31483;BME280;18103;52.246;8.052;2023-07-09T05:42:52;100618.09;;;23.14;59.59
31483;BME280;18103;52.246;8.052;2023-07-09T05:45:18;100621.25;;;23.17;59.67
31483;BME280;18103;52.246;8.052;2023-07-09T05:47:43;100619.88;;;23.28;59.21
31483;BME280;18103;52.246;8.052;2023-07-09T05:50:09;100617.84;;;23.37;58.51
31483;BME280;18103;52.246;8.052;2023-07-09T05:52:34;100625.53;;;23.40;59.01
31483;BME280;18103;52.246;8.052;2023-07-09T05:55:02;100623.91;;;23.46;59.29
31483;BME280;18103;52.246;8.052;2023-07-09T05:57:29;100623.91;;;23.46;59.06
31483;BME280;18103;52.246;8.052;2023-07-09T05:59:57;100628.06;;;23.48;59.42
31483;BME280;18103;52.246;8.052;2023-07-09T06:02:25;100629.38;;;23.59;58.82
31483;BME280;18103;52.246;8.052;2023-07-09T06:04:50;100631.28;;;23.72;58.63
31483;BME280;18103;52.246;8.052;2023-07-09T06:07:15;100624.75;;;23.88;56.85
31483;BME280;18103;52.246;8.052;2023-07-09T06:09:41;100628.13;;;23.97;56.30
31483;BME280;18103;52.246;8.052;2023-07-09T06:12:09;100625.66;;;24.08;55.67
31483;BME280;18103;52.246;8.052;2023-07-09T06:14:37;100628.13;;;24.10;55.75
31483;BME280;18103;52.246;8.052;2023-07-09T06:17:05;100625.66;;;24.15;56.51
31483;BME280;18103;52.246;8.052;2023-07-09T06:19:31;100627.56;;;24.28;55.94
31483;BME280;18103;52.246;8.052;2023-07-09T06:21:59;100623.22;;;24.20;55.86
31483;BME280;18103;52.246;8.052;2023-07-09T06:24:27;100631.56;;;24.46;55.45
31483;BME280;18103;52.246;8.052;2023-07-09T06:26:52;100627.59;;;24.55;53.77
31483;BME280;18103;52.246;8.052;2023-07-09T06:29:21;100628.06;;;24.72;53.82
31483;BME280;18103;52.246;8.052;2023-07-09T06:31:48;100626.19;;;24.86;53.27
31483;BME280;18103;52.246;8.052;2023-07-09T06:34:14;100632.41;;;25.00;52.75
31483;BME280;18103;52.246;8.052;2023-07-09T06:36:39;100636.38;;;25.17;51.96
31483;BME280;18103;52.246;8.052;2023-07-09T06:39:07;100642.97;;;25.28;51.22
31483;BME280;18103;52.246;8.052;2023-07-09T06:41:35;100647.97;;;25.38;51.24
31483;BME280;18103;52.246;8.052;2023-07-09T06:44:09;100636.13;;;25.52;51.54
31483;BME280;18103;52.246;8.052;2023-07-09T06:46:34;100646.66;;;25.67;50.32
31483;BME280;18103;52.246;8.052;2023-07-09T06:49:01;100648.53;;;25.73;50.73
31483;BME280;18103;52.246;8.052;2023-07-09T06:51:29;100644.31;;;25.84;50.50
31483;BME280;18103;52.246;8.052;2023-07-09T06:53:56;100643.81;;;26.01;50.58
31483;BME280;18103;52.246;8.052;2023-07-09T06:56:23;100647.16;;;26.09;50.03
31483;BME280;18103;52.246;8.052;2023-07-09T06:58:50;100647.69;;;26.25;50.17
31483;BME280;18103;52.246;8.052;2023-07-09T07:01:18;100642.19;;;26.38;49.90
31483;BME280;18103;52.246;8.052;2023-07-09T07:03:43;100649.66;;;26.43;49.67
31483;BME280;18103;52.246;8.052;2023-07-09T07:06:09;100643.56;;;26.54;49.31
31483;BME280;18103;52.246;8.052;2023-07-09T07:08:35;100645.38;;;26.60;49.30
31483;BME280;18103;52.246;8.052;2023-07-09T07:11:01;100645.94;;;26.69;49.95
31483;BME280;18103;52.246;8.052;2023-07-09T07:13:38;100648.56;;;26.83;48.80
31483;BME280;18103;52.246;8.052;2023-07-09T07:16:09;100654.97;;;26.88;49.64
31483;BME280;18103;52.246;8.052;2023-07-09T07:18:37;100661.13;;;27.02;50.20
31483;BME280;18103;52.246;8.052;2023-07-09T07:21:03;100655.78;;;27.14;49.84
31483;BME280;18103;52.246;8.052;2023-07-09T07:23:29;100646.56;;;27.22;49.59
31483;BME280;18103;52.246;8.052;2023-07-09T07:25:54;100650.63;;;27.31;49.06
31483;BME280;18103;52.246;8.052;2023-07-09T07:28:23;100641.41;;;27.39;48.62
31483;BME280;18103;52.246;8.052;2023-07-09T07:30:59;100647.97;;;27.49;49.33
31483;BME280;18103;52.246;8.052;2023-07-09T07:33:25;100653.91;;;27.58;48.99
31483;BME280;18103;52.246;8.052;2023-07-09T07:35:50;100652.56;;;27.68;49.02
31483;BME280;18103;52.246;8.052;2023-07-09T07:38:16;100646.84;;;27.76;48.65
31483;BME280;18103;52.246;8.052;2023-07-09T07:40:44;100647.13;;;27.86;48.57
31483;BME280;18103;52.246;8.052;2023-07-09T07:43:10;100646.56;;;27.96;47.84
31483;BME280;18103;52.246;8.052;2023-07-09T07:45:35;100653.38;;;28.05;48.29
31483;BME280;18103;52.246;8.052;2023-07-09T07:48:03;100647.84;;;28.12;48.46
31483;BME280;18103;52.246;8.052;2023-07-09T07:50:28;100652.59;;;28.16;47.86
31483;BME280;18103;52.246;8.052;2023-07-09T07:52:54;100645.81;;;28.07;47.68
31483;BME280;18103;52.246;8.052;2023-07-09T07:55:19;100649.56;;;28.25;48.10
31483;BME280;18103;52.246;8.052;2023-07-09T07:57:45;100643.78;;;28.33;47.61
31483;BME280;18103;52.246;8.052;2023-07-09T08:00:13;100635.91;;;28.43;46.75
31483;BME280;18103;52.246;8.052;2023-07-09T08:02:39;100637.84;;;28.55;46.40
31483;BME280;18103;52.246;8.052;2023-07-09T08:05:04;100642.22;;;28.56;46.45
31483;BME280;18103;52.246;8.052;2023-07-09T08:07:30;100629.72;;;28.66;46.88
31483;BME280;18103;52.246;8.052;2023-07-09T08:09:56;100629.03;;;28.71;46.55
31483;BME280;18103;52.246;8.052;2023-07-09T08:12:21;100624.06;;;28.92;46.84
31483;BME280;18103;52.246;8.052;2023-07-09T08:14:46;100631.88;;;29.00;44.87
31483;BME280;18103;52.246;8.052;2023-07-09T08:17:12;100628.69;;;29.03;44.51
31483;BME280;18103;52.246;8.052;2023-07-09T08:19:50;100628.34;;;29.11;44.84
31483;BME280;18103;52.246;8.052;2023-07-09T08:22:21;100630.69;;;29.19;44.82
31483;BME280;18103;52.246;8.052;2023-07-09T08:24:50;100627.41;;;29.29;44.70
31483;BME280;18103;52.246;8.052;2023-07-09T08:27:22;100627.28;;;29.48;44.50
31483;BME280;18103;52.246;8.052;2023-07-09T08:29:48;100630.81;;;29.48;44.21
31483;BME280;18103;52.246;8.052;2023-07-09T08:32:16;100632.69;;;29.60;44.64
31483;BME280;18103;52.246;8.052;2023-07-09T08:34:41;100630.16;;;29.70;45.55
31483;BME280;18103;52.246;8.052;2023-07-09T08:37:12;100629.22;;;29.76;45.01
31483;BME280;18103;52.246;8.052;2023-07-09T08:39:40;100627.06;;;29.90;43.46
31483;BME280;18103;52.246;8.052;2023-07-09T08:42:10;100630.13;;;29.82;43.60
31483;BME280;18103;52.246;8.052;2023-07-09T08:45:44;100629.69;;;29.73;42.84
31483;BME280;18103;52.246;8.052;2023-07-09T08:48:15;100630.66;;;30.08;42.64
31483;BME280;18103;52.246;8.052;2023-07-09T08:50:43;100622.69;;;30.18;42.58
31483;BME280;18103;52.246;8.052;2023-07-09T08:56:31;100623.28;;;30.37;42.78
31483;BME280;18103;52.246;8.052;2023-07-09T08:59:00;100623.28;;;30.37;42.30
31483;BME280;18103;52.246;8.052;2023-07-09T09:01:38;100614.47;;;30.47;43.40
31483;BME280;18103;52.246;8.052;2023-07-09T09:04:28;100616.25;;;30.53;42.63
31483;BME280;18103;52.246;8.052;2023-07-09T09:07:13;100620.19;;;30.62;42.69
31483;BME280;18103;52.246;8.052;2023-07-09T09:09:53;100623.41;;;30.76;42.81
31483;BME280;18103;52.246;8.052;2023-07-09T09:12:37;100621.16;;;30.90;42.69
31483;BME280;18103;52.246;8.052;2023-07-09T09:15:14;100624.53;;;30.97;42.24
31483;BME280;18103;52.246;8.052;2023-07-09T09:17:53;100621.81;;;30.97;41.56
31483;BME280;18103;52.246;8.052;2023-07-09T09:20:23;100632.06;;;30.90;41.89
31483;BME280;18103;52.246;8.052;2023-07-09T09:23:36;100618.53;;;30.95;42.45
31483;BME280;18103;52.246;8.052;2023-07-09T09:25:40;100623.81;;;30.85;41.83
31483;BME280;18103;52.246;8.052;2023-07-09T09:28:09;100621.31;;;31.00;42.33
31483;BME280;18103;52.246;8.052;2023-07-09T09:30:34;100625.81;;;31.07;41.98
31483;BME280;18103;52.246;8.052;2023-07-09T09:33:07;100626.78;;;31.17;42.08
31483;BME280;18103;52.246;8.052;2023-07-09T09:35:36;100627.34;;;31.19;41.04
31483;BME280;18103;52.246;8.052;2023-07-09T09:38:08;100624.78;;;31.13;42.28
31483;BME280;18103;52.246;8.052;2023-07-09T09:40:35;100620.22;;;31.18;41.04
31483;BME280;18103;52.246;8.052;2023-07-09T09:43:01;100633.34;;;31.38;41.21
31483;BME280;18103;52.246;8.052;2023-07-09T09:45:35;100633.47;;;31.49;43.02
31483;BME280;18103;52.246;8.052;2023-07-09T09:48:17;100627.97;;;31.66;41.90
31483;BME280;18103;52.246;8.052;2023-07-09T09:50:46;100625.94;;;31.78;40.88
31483;BME280;18103;52.246;8.052;2023-07-09T09:53:20;100618.19;;;31.92;41.54
31483;BME280;18103;52.246;8.052;2023-07-09T09:55:51;100620.09;;;31.92;41.37
31483;BME280;18103;52.246;8.052;2023-07-09T09:58:20;100618.09;;;31.87;40.74
31483;BME280;18103;52.246;8.052;2023-07-09T10:00:55;100617.81;;;31.83;39.86
31483;BME280;18103;52.246;8.052;2023-07-09T10:03:34;100618.25;;;31.97;39.35
31483;BME280;18103;52.246;8.052;2023-07-09T10:06:10;100622.47;;;32.10;40.13
31483;BME280;18103;52.246;8.052;2023-07-09T10:08:54;100625.03;;;31.95;39.69
31483;BME280;18103;52.246;8.052;2023-07-09T10:11:28;100619.31;;;31.96;40.67
31483;BME280;18103;52.246;8.052;2023-07-09T10:14:00;100616.94;;;32.05;39.77
31483;BME280;18103;52.246;8.052;2023-07-09T10:16:34;100627.63;;;32.34;39.98
31483;BME280;18103;52.246;8.052;2023-07-09T10:22:05;100613.78;;;32.46;39.87
31483;BME280;18103;52.246;8.052;2023-07-09T10:27:23;100616.25;;;32.47;39.02
31483;BME280;18103;52.246;8.052;2023-07-09T10:30:22;100628.25;;;32.73;39.76
31483;BME280;18103;52.246;8.052;2023-07-09T10:33:04;100616.66;;;32.61;38.45
31483;BME280;18103;52.246;8.052;2023-07-09T10:40:59;100611.06;;;32.78;38.53
31483;BME280;18103;52.246;8.052;2023-07-09T10:43:49;100606.22;;;32.85;38.69
31483;BME280;18103;52.246;8.052;2023-07-09T10:46:20;100613.16;;;33.08;38.01
31483;BME280;18103;52.246;8.052;2023-07-09T10:48:48;100607.22;;;33.22;37.99
31483;BME280;18103;52.246;8.052;2023-07-09T10:51:37;100606.78;;;33.40;37.32
31483;BME280;18103;52.246;8.052;2023-07-09T10:56:47;100603.22;;;33.35;36.35
31483;BME280;18103;52.246;8.052;2023-07-09T11:01:56;100597.50;;;33.47;33.91
31483;BME280;18103;52.246;8.052;2023-07-09T11:09:55;100593.56;;;33.90;36.07
31483;BME280;18103;52.246;8.052;2023-07-09T11:15:01;100593.84;;;33.99;36.08
31483;BME280;18103;52.246;8.052;2023-07-09T11:17:29;100591.38;;;33.92;34.28
31483;BME280;18103;52.246;8.052;2023-07-09T11:19:58;100595.53;;;34.26;34.85
31483;BME280;18103;52.246;8.052;2023-07-09T11:22:50;100587.03;;;34.27;33.83
31483;BME280;18103;52.246;8.052;2023-07-09T11:28:09;100596.28;;;33.85;32.63
31483;BME280;18103;52.246;8.052;2023-07-09T11:30:52;100592.25;;;34.29;33.15
31483;BME280;18103;52.246;8.052;2023-07-09T11:33:27;100584.84;;;34.60;33.26
31483;BME280;18103;52.246;8.052;2023-07-09T11:36:13;100588.09;;;34.78;33.37
31483;BME280;18103;52.246;8.052;2023-07-09T11:38:47;100585.38;;;34.78;34.53
31483;BME280;18103;52.246;8.052;2023-07-09T11:41:41;100583.22;;;34.59;33.55
31483;BME280;18103;52.246;8.052;2023-07-09T11:49:38;100580.88;;;35.23;32.93
31483;BME280;18103;52.246;8.052;2023-07-09T11:52:09;100585.31;;;35.14;33.36
31483;BME280;18103;52.246;8.052;2023-07-09T11:54:37;100585.06;;;35.00;34.50
31483;BME280;18103;52.246;8.052;2023-07-09T11:57:09;100584.25;;;34.94;33.27
31483;BME280;18103;52.246;8.052;2023-07-09T11:59:40;100580.34;;;35.21;34.71
31483;BME280;18103;52.246;8.052;2023-07-09T12:02:15;100584.06;;;35.56;33.94
31483;BME280;18103;52.246;8.052;2023-07-09T12:04:43;100576.47;;;35.38;34.46
31483;BME280;18103;52.246;8.052;2023-07-09T12:07:15;100562.66;;;35.48;35.65
31483;BME280;18103;52.246;8.052;2023-07-09T12:09:47;100548.78;;;35.19;35.51
31483;BME280;18103;52.246;8.052;2023-07-09T12:12:21;100550.72;;;35.73;33.75
31483;BME280;18103;52.246;8.052;2023-07-09T12:14:48;100550.72;;;35.73;33.84
31483;BME280;18103;52.246;8.052;2023-07-09T12:17:16;100543.97;;;36.00;35.22
31483;BME280;18103;52.246;8.052;2023-07-09T12:19:42;100535.84;;;36.19;33.72
31483;BME280;18103;52.246;8.052;2023-07-09T12:22:19;100537.84;;;35.69;35.15
31483;BME280;18103;52.246;8.052;2023-07-09T12:24:49;100523.53;;;35.72;33.71
31483;BME280;18103;52.246;8.052;2023-07-09T12:27:23;100533.53;;;35.52;33.94
31483;BME280;18103;52.246;8.052;2023-07-09T12:29:56;100527.03;;;35.43;33.80
31483;BME280;18103;52.246;8.052;2023-07-09T12:32:22;100528.06;;;35.52;33.28
31483;BME280;18103;52.246;8.052;2023-07-09T12:34:55;100526.59;;;35.10;32.56
31483;BME280;18103;52.246;8.052;2023-07-09T12:37:25;100514.88;;;34.89;32.38
31483;BME280;18103;52.246;8.052;2023-07-09T12:39:53;100514.31;;;34.97;32.85
31483;BME280;18103;52.246;8.052;2023-07-09T12:42:30;100501.53;;;35.27;33.29
31483;BME280;18103;52.246;8.052;2023-07-09T12:44:57;100513.09;;;35.24;33.43
31483;BME280;18103;52.246;8.052;2023-07-09T12:47:24;100507.84;;;35.27;33.72
31483;BME280;18103;52.246;8.052;2023-07-09T12:50:00;100523.13;;;35.49;32.63
31483;BME280;18103;52.246;8.052;2023-07-09T12:52:26;100521.84;;;35.76;33.42
31483;BME280;18103;52.246;8.052;2023-07-09T12:54:55;100519.88;;;35.42;33.21
31483;BME280;18103;52.246;8.052;2023-07-09T12:57:22;100519.47;;;35.64;32.97
31483;BME280;18103;52.246;8.052;2023-07-09T12:59:48;100515.75;;;35.44;32.73
31483;BME280;18103;52.246;8.052;2023-07-09T13:02:19;100518.41;;;35.60;33.75
31483;BME280;18103;52.246;8.052;2023-07-09T13:04:57;100504.22;;;35.42;33.40
31483;BME280;18103;52.246;8.052;2023-07-09T13:09:55;100504.88;;;35.19;33.16
31483;BME280;18103;52.246;8.052;2023-07-09T13:12:30;100497.00;;;35.57;32.99
31483;BME280;18103;52.246;8.052;2023-07-09T13:14:59;100494.09;;;35.77;33.73
31483;BME280;18103;52.246;8.052;2023-07-09T13:17:29;100493.41;;;35.61;33.13
31483;BME280;18103;52.246;8.052;2023-07-09T13:19:55;100485.91;;;36.07;33.45
31483;BME280;18103;52.246;8.052;2023-07-09T13:22:23;100480.91;;;35.85;33.52
31483;BME280;18103;52.246;8.052;2023-07-09T13:24:50;100475.53;;;36.33;33.45
31483;BME280;18103;52.246;8.052;2023-07-09T13:27:18;100477.88;;;36.16;34.33
31483;BME280;18103;52.246;8.052;2023-07-09T13:29:43;100475.41;;;35.79;33.43
31483;BME280;18103;52.246;8.052;2023-07-09T13:32:13;100475.16;;;35.76;34.18
31483;BME280;18103;52.246;8.052;2023-07-09T13:34:39;100470.84;;;35.64;34.35
31483;BME280;18103;52.246;8.052;2023-07-09T13:37:09;100476.44;;;35.89;34.28
31483;BME280;18103;52.246;8.052;2023-07-09T13:39:37;100480.13;;;35.74;33.87
31483;BME280;18103;52.246;8.052;2023-07-09T13:42:09;100481.69;;;35.90;34.18
31483;BME280;18103;52.246;8.052;2023-07-09T13:44:36;100475.72;;;35.78;34.64